createdAt,value
2017-11-30T00:01:05.841Z,79.03
2017-11-30T00:03:31.617Z,78.69
2017-11-30T00:06:01.052Z,77.98
2017-11-30T00:08:26.833Z,78.71
2017-11-30T00:10:55.666Z,79.47
2017-11-30T00:13:21.468Z,80.05
2017-11-30T00:15:50.988Z,80.36
2017-11-30T00:18:16.777Z,81.38
2017-11-30T00:20:45.643Z,80.85
2017-11-30T00:23:11.435Z,81.72
2017-11-30T00:25:37.239Z,82.00
2017-11-30T00:28:03.023Z,81.47
2017-11-30T00:30:28.796Z,82.21
2017-11-30T00:32:56.530Z,82.12
2017-11-30T00:35:22.318Z,82.02
2017-11-30T00:37:52.045Z,82.23
2017-11-30T00:40:17.806Z,82.38
2017-11-30T00:42:56.079Z,81.68
2017-11-30T00:45:22.344Z,82.11
2017-11-30T00:47:48.124Z,82.29
2017-11-30T00:50:13.912Z,82.21
2017-11-30T00:52:39.660Z,82.49
2017-11-30T00:55:05.436Z,82.81
2017-11-30T00:57:31.201Z,82.36
2017-11-30T00:59:56.965Z,82.75
2017-11-30T01:02:22.738Z,82.79
2017-11-30T01:04:48.492Z,83.06
2017-11-30T01:07:14.255Z,82.60
2017-11-30T01:09:41.424Z,82.48
2017-11-30T01:12:07.184Z,82.97
2017-11-30T01:14:35.601Z,82.87
2017-11-30T01:17:01.384Z,82.83
2017-11-30T01:19:27.137Z,83.61
2017-11-30T01:21:56.228Z,84.02
2017-11-30T01:26:52.804Z,84.64
2017-11-30T01:29:20.497Z,84.63
2017-11-30T01:31:46.264Z,84.76
2017-11-30T01:34:15.909Z,84.69
2017-11-30T01:36:41.800Z,84.75
2017-11-30T01:39:07.647Z,84.57
2017-11-30T01:41:33.528Z,84.54
2017-11-30T01:43:59.395Z,84.85
2017-11-30T01:46:28.280Z,84.84
2017-11-30T01:48:54.141Z,85.32
2017-11-30T01:51:21.868Z,85.37
2017-11-30T01:53:47.715Z,85.60
2017-11-30T01:56:16.121Z,85.52
2017-11-30T01:58:41.952Z,85.85
2017-11-30T02:01:12.837Z,85.61
2017-11-30T02:03:38.620Z,85.74
2017-11-30T02:06:05.902Z,85.93
2017-11-30T02:08:31.669Z,85.53
2017-11-30T02:11:00.522Z,85.81
2017-11-30T02:13:26.359Z,85.89
2017-11-30T02:15:52.179Z,86.04
2017-11-30T02:18:18.022Z,86.32
2017-11-30T02:20:43.858Z,86.39
2017-11-30T02:23:13.382Z,85.95
2017-11-30T02:25:39.200Z,85.98
2017-11-30T02:28:06.836Z,86.16
2017-11-30T02:30:32.659Z,86.51
2017-11-30T02:33:01.918Z,86.32
2017-11-30T02:35:27.740Z,86.30
2017-11-30T02:37:55.942Z,86.28
2017-11-30T02:40:21.810Z,86.61
2017-11-30T02:42:54.564Z,86.40
2017-11-30T02:45:20.441Z,86.53
2017-11-30T02:47:46.242Z,86.65
2017-11-30T02:50:12.063Z,86.31
2017-11-30T02:52:37.938Z,86.61
2017-11-30T02:55:03.831Z,86.90
2017-11-30T02:57:29.618Z,86.86
2017-11-30T02:59:58.986Z,87.23
2017-11-30T03:02:24.837Z,87.65
2017-11-30T03:04:52.087Z,87.93
2017-11-30T03:07:17.963Z,88.02
2017-11-30T03:09:47.784Z,88.30
2017-11-30T03:12:13.581Z,88.40
2017-11-30T03:14:42.705Z,88.58
2017-11-30T03:17:08.497Z,88.66
2017-11-30T03:19:36.293Z,88.99
2017-11-30T03:22:02.135Z,88.99
2017-11-30T03:24:31.530Z,89.10
2017-11-30T03:26:57.355Z,89.50
2017-11-30T03:29:23.134Z,89.50
2017-11-30T03:31:49.000Z,89.61
2017-11-30T03:34:14.874Z,89.76
2017-11-30T03:36:44.225Z,89.95
2017-11-30T03:39:10.057Z,90.27
2017-11-30T03:41:39.104Z,90.35
2017-11-30T03:44:04.972Z,90.27
2017-11-30T03:46:32.125Z,90.55
2017-11-30T03:48:57.949Z,90.48
2017-11-30T03:51:28.128Z,90.55
2017-11-30T03:53:53.906Z,90.77
2017-11-30T03:56:23.275Z,90.95
2017-11-30T03:58:49.124Z,91.16
2017-11-30T04:01:16.536Z,90.91
2017-11-30T04:03:42.328Z,91.04
2017-11-30T04:06:08.114Z,90.78
2017-11-30T04:08:34.040Z,90.83
2017-11-30T04:10:59.859Z,91.26
2017-11-30T04:13:29.339Z,91.31
2017-11-30T04:15:55.172Z,91.32
2017-11-30T04:18:22.921Z,91.63
2017-11-30T04:20:48.715Z,91.44
2017-11-30T04:23:19.050Z,91.45
2017-11-30T04:25:44.852Z,91.11
2017-11-30T04:28:12.239Z,90.96
2017-11-30T04:30:38.037Z,90.75
2017-11-30T04:33:08.090Z,90.31
2017-11-30T04:35:33.902Z,90.70
2017-11-30T04:38:01.437Z,90.91
2017-11-30T04:40:27.253Z,91.28
2017-11-30T04:42:53.096Z,91.39
2017-11-30T04:45:18.927Z,91.65
2017-11-30T04:47:44.747Z,91.64
2017-11-30T04:50:13.735Z,91.94
2017-11-30T04:52:39.558Z,91.97
2017-11-30T04:55:08.569Z,92.21
2017-11-30T04:57:34.448Z,92.39
2017-11-30T05:00:04.226Z,92.66
2017-11-30T05:02:30.039Z,92.72
2017-11-30T05:04:57.694Z,92.57
2017-11-30T05:07:23.543Z,92.70
2017-11-30T05:09:52.941Z,92.99
2017-11-30T05:12:18.794Z,93.09
2017-11-30T05:14:48.045Z,93.02
2017-11-30T05:17:13.845Z,92.88
2017-11-30T05:19:39.699Z,92.93
2017-11-30T05:22:05.516Z,93.02
2017-11-30T05:24:31.340Z,93.11
2017-11-30T05:26:59.074Z,92.99
2017-11-30T05:29:24.920Z,92.74
2017-11-30T05:31:54.160Z,92.58
2017-11-30T05:34:19.936Z,92.58
2017-11-30T05:36:49.360Z,92.43
2017-11-30T05:39:15.186Z,92.44
2017-11-30T05:41:42.824Z,92.37
2017-11-30T05:44:08.651Z,92.65
2017-11-30T05:46:37.612Z,92.62
2017-11-30T05:49:03.462Z,92.22
2017-11-30T05:51:32.667Z,91.95
2017-11-30T05:53:58.485Z,92.11
2017-11-30T05:56:24.313Z,91.73
2017-11-30T05:58:50.136Z,91.76
2017-11-30T06:01:15.939Z,91.61
2017-11-30T06:03:43.607Z,91.18
2017-11-30T06:06:09.436Z,91.05
2017-11-30T06:08:38.166Z,91.19
2017-11-30T06:11:04.014Z,91.01
2017-11-30T06:16:00.775Z,89.50
2017-11-30T06:18:28.267Z,89.60
2017-11-30T06:20:54.126Z,89.11
2017-11-30T06:23:22.556Z,89.07
2017-11-30T06:25:48.378Z,88.20
2017-11-30T06:28:17.675Z,88.43
2017-11-30T06:30:43.489Z,88.00
2017-11-30T06:33:09.375Z,87.68
2017-11-30T06:35:35.213Z,87.33
2017-11-30T06:38:01.109Z,87.39
2017-11-30T06:40:28.907Z,87.87
2017-11-30T06:42:54.749Z,87.41
2017-11-30T06:45:27.375Z,87.53
2017-11-30T06:47:53.210Z,87.70
2017-11-30T06:50:19.040Z,87.18
2017-11-30T06:52:44.875Z,86.52
2017-11-30T06:55:14.514Z,86.69
2017-11-30T06:57:40.329Z,86.59
2017-11-30T07:00:08.055Z,87.10
2017-11-30T07:02:33.890Z,86.84
2017-11-30T07:05:02.084Z,86.35
2017-11-30T07:07:27.967Z,86.50
2017-11-30T07:09:53.782Z,86.46
2017-11-30T07:12:19.602Z,86.14
2017-11-30T07:14:45.420Z,86.31
2017-11-30T07:17:14.054Z,86.58
2017-11-30T07:19:39.891Z,86.63
2017-11-30T07:24:36.496Z,86.28
2017-11-30T07:27:05.573Z,86.03
2017-11-30T07:29:31.464Z,85.63
2017-11-30T07:31:58.986Z,85.40
2017-11-30T07:34:24.799Z,85.59
2017-11-30T07:36:54.172Z,85.45
2017-11-30T07:39:20.009Z,85.62
2017-11-30T07:41:49.414Z,85.36
2017-11-30T07:44:15.212Z,85.22
2017-11-30T07:46:41.022Z,85.55
2017-11-30T07:49:06.829Z,85.34
2017-11-30T07:51:32.632Z,85.07
2017-11-30T07:54:00.253Z,85.41
2017-11-30T07:56:26.081Z,85.17
2017-11-30T07:58:54.329Z,85.17
2017-11-30T08:01:20.112Z,85.15
2017-11-30T08:03:49.476Z,84.91
2017-11-30T08:06:15.278Z,84.93
2017-11-30T08:08:44.751Z,84.50
2017-11-30T08:11:10.537Z,84.20
2017-11-30T08:13:40.046Z,84.39
2017-11-30T08:16:05.882Z,84.79
2017-11-30T08:18:34.723Z,84.58
2017-11-30T08:21:00.533Z,84.42
2017-11-30T08:23:26.348Z,84.26
2017-11-30T08:25:52.168Z,84.34
2017-11-30T08:28:18.030Z,84.12
2017-11-30T08:30:45.035Z,84.28
2017-11-30T08:33:10.871Z,84.66
2017-11-30T08:35:40.126Z,84.91
2017-11-30T08:38:05.991Z,85.07
2017-11-30T08:40:34.471Z,84.74
2017-11-30T08:43:00.314Z,84.18
2017-11-30T08:45:28.960Z,83.74
2017-11-30T08:47:54.760Z,83.69
2017-11-30T08:52:51.304Z,83.83
2017-11-30T08:55:18.544Z,83.96
2017-11-30T08:57:44.402Z,83.72
2017-11-30T09:00:10.254Z,83.78
2017-11-30T09:02:36.096Z,84.46
2017-11-30T09:05:01.925Z,84.26
2017-11-30T09:07:30.264Z,84.91
2017-11-30T09:09:56.105Z,84.66
2017-11-30T09:12:25.764Z,85.10
2017-11-30T09:14:51.640Z,84.42
2017-11-30T09:17:20.663Z,84.07
2017-11-30T09:19:46.513Z,84.22
2017-11-30T09:22:14.311Z,83.73
2017-11-30T09:24:40.154Z,83.75
2017-11-30T09:27:09.074Z,83.37
2017-11-30T09:29:34.906Z,84.14
2017-11-30T09:32:04.342Z,83.50
2017-11-30T09:34:30.196Z,83.77
2017-11-30T09:36:56.056Z,83.10
2017-11-30T09:39:21.915Z,83.11
2017-11-30T09:41:47.716Z,82.37
2017-11-30T09:44:15.348Z,82.08
2017-11-30T09:46:41.195Z,81.82
2017-11-30T09:49:10.446Z,81.98
2017-11-30T09:51:36.318Z,81.91
2017-11-30T09:54:06.024Z,81.29
2017-11-30T09:56:31.848Z,80.61
2017-11-30T09:58:59.716Z,80.26
2017-11-30T10:01:25.610Z,80.55
2017-11-30T10:03:54.658Z,80.38
2017-11-30T10:06:20.525Z,81.03
2017-11-30T10:08:49.532Z,79.79
2017-11-30T10:11:15.468Z,80.85
2017-11-30T10:13:41.269Z,79.37
2017-11-30T10:16:07.077Z,79.43
2017-11-30T10:18:32.941Z,78.78
2017-11-30T10:21:00.619Z,79.45
2017-11-30T10:23:27.271Z,79.74
2017-11-30T10:25:56.555Z,78.92
2017-11-30T10:28:22.392Z,80.22
2017-11-30T10:30:51.628Z,79.95
2017-11-30T10:33:17.458Z,79.90
2017-11-30T10:35:46.408Z,80.60
2017-11-30T10:38:13.201Z,80.80
2017-11-30T10:40:39.960Z,80.95
2017-11-30T10:43:05.781Z,80.99
2017-11-30T10:45:35.244Z,81.93
2017-11-30T10:48:01.060Z,82.55
2017-11-30T10:50:26.834Z,81.80
2017-11-30T10:52:52.646Z,81.70
2017-11-30T10:55:18.479Z,81.67
2017-11-30T10:57:46.317Z,82.04
2017-11-30T11:00:12.176Z,81.79
2017-11-30T11:02:40.816Z,82.13
2017-11-30T11:05:06.613Z,81.84
2017-11-30T11:07:36.111Z,81.57
2017-11-30T11:10:01.960Z,80.87
2017-11-30T11:12:31.544Z,81.41
2017-11-30T11:14:57.343Z,77.50
2017-11-30T11:17:25.086Z,73.19
2017-11-30T11:19:50.996Z,70.99
2017-11-30T11:22:20.724Z,67.19
2017-11-30T11:24:46.608Z,69.07
2017-11-30T11:27:12.381Z,70.22
2017-11-30T11:29:38.157Z,71.81
2017-11-30T11:32:04.005Z,74.77
2017-11-30T11:34:31.585Z,75.83
2017-11-30T11:36:57.401Z,76.33
2017-11-30T11:39:26.911Z,72.08
2017-11-30T11:41:52.780Z,71.55
2017-11-30T11:44:22.136Z,73.22
2017-11-30T11:46:47.969Z,75.89
2017-11-30T11:49:15.554Z,75.77
2017-11-30T11:51:41.367Z,77.66
2017-11-30T11:54:09.977Z,77.85
2017-11-30T11:56:35.769Z,78.41
2017-11-30T12:01:32.389Z,79.42
2017-11-30T12:03:58.272Z,79.08
2017-11-30T12:06:24.084Z,80.90
2017-11-30T12:08:49.908Z,79.79
2017-11-30T12:11:16.832Z,79.55
2017-11-30T12:13:42.658Z,80.07
2017-11-30T12:16:11.716Z,79.96
2017-11-30T12:18:37.601Z,79.60
2017-11-30T12:21:06.436Z,79.78
2017-11-30T12:23:32.249Z,78.06
2017-11-30T12:26:00.857Z,79.00
2017-11-30T12:28:26.661Z,77.26
2017-11-30T12:30:53.156Z,76.67
2017-11-30T12:33:21.124Z,77.66
2017-11-30T12:38:17.772Z,77.74
2017-11-30T12:40:43.606Z,78.51
2017-11-30T12:43:09.472Z,77.34
2017-11-30T12:45:35.330Z,77.98
2017-11-30T12:48:02.182Z,77.92
2017-11-30T12:50:27.995Z,77.33
2017-11-30T12:52:57.312Z,77.29
2017-11-30T12:55:23.127Z,76.75
2017-11-30T12:57:52.754Z,77.47
2017-11-30T13:00:18.590Z,77.25
2017-11-30T13:02:46.172Z,78.78
2017-11-30T13:05:12.289Z,77.35
2017-11-30T13:07:41.668Z,77.50
2017-11-30T13:10:07.480Z,79.82
2017-11-30T13:12:36.518Z,80.03
2017-11-30T13:15:02.357Z,81.39
2017-11-30T13:17:28.156Z,81.80
2017-11-30T13:19:54.025Z,82.60
2017-11-30T13:22:19.837Z,81.92
2017-11-30T13:24:47.678Z,82.41
2017-11-30T13:27:13.520Z,83.25
2017-11-30T13:29:42.854Z,82.55
2017-11-30T13:32:08.728Z,83.34
2017-11-30T13:34:38.038Z,83.53
2017-11-30T13:37:03.838Z,82.99
2017-11-30T13:39:31.596Z,83.72
2017-11-30T13:41:57.363Z,83.85
2017-11-30T13:44:25.828Z,84.51
2017-11-30T13:46:51.686Z,85.03
2017-11-30T13:51:48.389Z,85.50
2017-11-30T13:54:14.184Z,85.55
2017-11-30T13:56:39.963Z,84.09
2017-11-30T13:59:05.776Z,83.82
2017-11-30T14:01:33.572Z,84.50
2017-11-30T14:03:59.409Z,83.69
2017-11-30T14:06:27.319Z,83.11
2017-11-30T14:08:53.130Z,83.26
2017-11-30T14:11:19.585Z,83.41
2017-11-30T14:13:45.335Z,82.71
2017-11-30T14:16:11.110Z,81.89
2017-11-30T14:18:40.648Z,81.26
2017-11-30T14:21:06.403Z,82.12
2017-11-30T14:23:35.616Z,81.42
2017-11-30T14:26:01.394Z,81.93
2017-11-30T14:28:28.793Z,82.12
2017-11-30T14:30:54.587Z,81.10
2017-11-30T14:33:24.161Z,81.29
2017-11-30T14:35:49.952Z,81.52
2017-11-30T14:38:19.528Z,81.32
2017-11-30T14:40:45.306Z,81.15
2017-11-30T14:43:12.834Z,81.48
2017-11-30T14:45:38.665Z,81.17
2017-11-30T14:48:09.140Z,81.17
2017-11-30T14:50:34.932Z,81.95
2017-11-30T14:53:02.427Z,82.13
2017-11-30T14:55:28.274Z,81.79
2017-11-30T14:57:57.686Z,82.47
2017-11-30T15:00:23.506Z,82.56
2017-11-30T15:02:53.161Z,82.80
2017-11-30T15:05:18.963Z,83.04
2017-11-30T15:07:44.790Z,83.24
2017-11-30T15:10:10.654Z,84.02
2017-11-30T15:12:36.468Z,84.42
2017-11-30T15:15:03.234Z,84.63
2017-11-30T15:17:29.044Z,85.10
2017-11-30T15:19:58.576Z,84.64
2017-11-30T15:22:24.386Z,84.81
2017-11-30T15:24:52.749Z,84.67
2017-11-30T15:27:18.533Z,84.41
2017-11-30T15:29:47.849Z,84.67
2017-11-30T15:32:13.739Z,84.58
2017-11-30T15:34:42.585Z,84.61
2017-11-30T15:37:08.376Z,84.97
2017-11-30T15:39:37.557Z,84.09
2017-11-30T15:42:03.381Z,84.63
2017-11-30T15:44:29.184Z,84.34
2017-11-30T15:46:55.038Z,83.95
2017-11-30T15:49:20.805Z,84.26
2017-11-30T15:51:48.538Z,84.71
2017-11-30T15:54:14.374Z,83.96
2017-11-30T15:56:43.300Z,84.25
2017-11-30T15:59:09.114Z,84.52
2017-11-30T16:01:39.504Z,83.85
2017-11-30T16:04:05.304Z,84.31
2017-11-30T16:06:32.781Z,84.53
2017-11-30T16:08:58.630Z,84.23
2017-11-30T16:11:27.560Z,84.41
2017-11-30T16:13:53.344Z,83.96
2017-11-30T16:16:22.314Z,84.27
2017-11-30T16:18:48.168Z,84.72
2017-11-30T16:21:14.026Z,85.05
2017-11-30T16:23:39.828Z,85.38
2017-11-30T16:26:05.646Z,85.86
2017-11-30T16:28:34.835Z,86.90
2017-11-30T16:31:00.666Z,87.00
2017-11-30T16:33:30.464Z,87.04
2017-11-30T16:35:56.237Z,87.30
2017-11-30T16:38:23.749Z,87.66
2017-11-30T16:40:49.666Z,88.07
2017-11-30T16:43:18.771Z,88.54
2017-11-30T16:45:44.593Z,89.11
2017-11-30T16:48:12.719Z,89.59
2017-11-30T16:50:38.520Z,89.68
2017-11-30T16:53:07.308Z,89.95
2017-11-30T16:55:33.133Z,90.68
2017-11-30T16:57:58.959Z,90.91
2017-11-30T17:00:24.748Z,91.17
2017-11-30T17:02:50.570Z,91.27
2017-11-30T17:05:19.928Z,91.43
2017-11-30T17:07:45.754Z,91.66
2017-11-30T17:10:13.901Z,91.71
2017-11-30T17:12:39.724Z,91.74
2017-11-30T17:15:08.678Z,91.84
2017-11-30T17:17:34.461Z,92.02
2017-11-30T17:20:03.305Z,91.87
2017-11-30T17:22:29.140Z,91.87
2017-11-30T17:24:58.480Z,91.87
2017-11-30T17:27:24.312Z,91.99
2017-11-30T17:29:53.574Z,92.07
2017-11-30T17:32:19.363Z,91.84
2017-11-30T17:34:45.199Z,91.83
2017-11-30T17:37:11.010Z,91.57
2017-11-30T17:39:37.556Z,91.50
2017-11-30T17:42:05.280Z,91.63
2017-11-30T17:44:31.060Z,91.26
2017-11-30T17:46:59.931Z,91.18
2017-11-30T17:49:25.742Z,91.00
2017-11-30T17:51:55.399Z,90.70
2017-11-30T17:54:21.355Z,90.63
2017-11-30T17:56:49.138Z,90.50
2017-11-30T17:59:14.904Z,90.53
2017-11-30T18:01:43.886Z,90.49
2017-11-30T18:04:10.130Z,90.51
2017-11-30T18:06:39.348Z,90.13
2017-11-30T18:09:05.194Z,89.70
2017-11-30T18:11:30.979Z,89.76
2017-11-30T18:13:56.775Z,89.39
2017-11-30T18:16:22.567Z,88.29
2017-11-30T18:18:50.198Z,88.06
2017-11-30T18:21:16.078Z,87.42
2017-11-30T18:23:45.856Z,86.83
2017-11-30T18:26:11.656Z,86.61
2017-11-30T18:28:39.450Z,85.94
2017-11-30T18:31:05.299Z,85.84
2017-11-30T18:33:34.663Z,85.67
2017-11-30T18:36:00.471Z,86.07
2017-11-30T18:38:30.092Z,85.39
2017-11-30T18:40:55.927Z,84.97
2017-11-30T18:43:23.549Z,84.90
2017-11-30T18:45:49.366Z,85.04
2017-11-30T18:48:15.193Z,84.83
2017-11-30T18:50:41.033Z,84.40
2017-11-30T18:53:06.834Z,85.24
2017-11-30T18:55:36.461Z,85.13
2017-11-30T18:58:02.298Z,84.54
2017-11-30T19:00:29.992Z,84.39
2017-11-30T19:02:55.828Z,84.06
2017-11-30T19:05:25.125Z,84.45
2017-11-30T19:07:50.952Z,83.86
2017-11-30T19:10:19.276Z,83.12
2017-11-30T19:12:45.097Z,83.02
2017-11-30T19:15:14.528Z,83.55
2017-11-30T19:17:40.437Z,82.88
2017-11-30T19:20:10.211Z,83.33
2017-11-30T19:22:36.334Z,83.29
2017-11-30T19:25:02.183Z,83.10
2017-11-30T19:27:27.999Z,82.70
2017-11-30T19:29:53.806Z,82.88
2017-11-30T19:32:21.153Z,82.84
2017-11-30T19:34:46.982Z,82.28
2017-11-30T19:37:16.370Z,82.18
2017-11-30T19:39:42.275Z,82.32
2017-11-30T19:42:09.978Z,81.76
2017-11-30T19:44:35.913Z,82.48
2017-11-30T19:47:06.055Z,82.57
2017-11-30T19:49:31.839Z,82.43
2017-11-30T19:51:59.564Z,81.98
2017-11-30T19:54:25.331Z,82.78
2017-11-30T19:56:55.583Z,82.39
2017-11-30T19:59:21.593Z,81.77
2017-11-30T20:01:47.431Z,81.73
2017-11-30T20:04:13.248Z,81.86
2017-11-30T20:06:39.035Z,82.18
2017-11-30T20:09:06.586Z,81.08
2017-11-30T20:11:32.373Z,80.92
2017-11-30T20:14:02.118Z,81.24
2017-11-30T20:16:27.897Z,81.34
2017-11-30T20:18:55.134Z,80.92
2017-11-30T20:21:20.986Z,81.00
2017-11-30T20:23:50.294Z,81.38
2017-11-30T20:26:16.156Z,81.61
2017-11-30T20:28:45.648Z,81.64
2017-11-30T20:31:11.430Z,80.97
2017-11-30T20:33:41.096Z,81.89
2017-11-30T20:36:06.863Z,82.13
2017-11-30T20:38:32.670Z,82.41
2017-11-30T20:40:58.477Z,81.94
2017-11-30T20:43:24.338Z,82.55
2017-11-30T20:45:51.183Z,82.36
2017-11-30T20:48:17.000Z,82.41
2017-11-30T20:50:46.247Z,82.13
2017-11-30T20:53:12.048Z,81.77
2017-11-30T20:55:40.927Z,81.49
2017-11-30T20:58:06.766Z,81.73
2017-11-30T21:00:35.641Z,82.09
2017-11-30T21:03:01.467Z,82.93
2017-11-30T21:05:30.901Z,82.89
2017-11-30T21:07:56.691Z,83.50
2017-11-30T21:10:26.138Z,83.53
2017-11-30T21:12:51.974Z,83.78
2017-11-30T21:15:17.791Z,83.95
2017-11-30T21:17:43.701Z,83.91
2017-11-30T21:20:09.515Z,84.04
2017-11-30T21:22:36.818Z,84.16
2017-11-30T21:25:02.596Z,83.95
2017-11-30T21:27:32.385Z,84.41
2017-11-30T21:29:58.223Z,84.33
2017-11-30T21:32:27.445Z,84.45
2017-11-30T21:34:53.285Z,84.19
2017-11-30T21:37:20.812Z,84.09
2017-11-30T21:39:46.639Z,84.06
2017-11-30T21:42:16.020Z,83.79
2017-11-30T21:44:41.792Z,83.91
2017-11-30T21:47:11.349Z,84.17
2017-11-30T21:49:37.114Z,83.96
2017-11-30T21:52:02.973Z,84.12
2017-11-30T21:54:28.774Z,84.57
2017-11-30T21:56:54.593Z,84.15
2017-11-30T21:59:22.113Z,84.20
2017-11-30T22:01:47.936Z,84.07
2017-11-30T22:04:16.820Z,83.66
2017-11-30T22:06:42.641Z,84.05
2017-11-30T22:09:11.939Z,84.13
2017-11-30T22:11:37.758Z,84.08
2017-11-30T22:14:05.722Z,83.92
2017-11-30T22:16:31.521Z,83.86
2017-11-30T22:21:28.069Z,83.81
2017-11-30T22:23:55.792Z,84.01
2017-11-30T22:26:21.590Z,84.27
2017-11-30T22:28:47.398Z,83.73
2017-11-30T22:31:13.208Z,84.17
2017-11-30T22:33:39.038Z,84.77
2017-11-30T22:36:06.825Z,84.47
2017-11-30T22:38:32.609Z,83.60
2017-11-30T22:41:01.285Z,83.53
2017-11-30T22:43:27.100Z,83.38
2017-11-30T22:48:23.772Z,82.77
2017-11-30T22:50:51.535Z,82.48
2017-11-30T22:53:17.312Z,82.16
2017-11-30T22:55:46.891Z,82.34
2017-11-30T22:58:12.694Z,82.49
2017-11-30T23:00:42.115Z,82.70
2017-11-30T23:03:07.937Z,82.99
2017-11-30T23:05:33.796Z,82.67
2017-11-30T23:07:59.609Z,82.46
2017-11-30T23:10:25.432Z,82.12
2017-11-30T23:12:52.481Z,82.64
2017-11-30T23:15:18.306Z,82.66
2017-11-30T23:17:47.107Z,82.84
2017-11-30T23:20:12.917Z,82.83
2017-11-30T23:22:41.541Z,82.73
2017-11-30T23:25:07.346Z,82.70
2017-11-30T23:30:04.022Z,83.22
2017-11-30T23:32:31.643Z,83.18
2017-11-30T23:34:57.420Z,83.43
2017-11-30T23:37:26.819Z,83.30
2017-11-30T23:39:52.661Z,83.80
2017-11-30T23:42:18.502Z,83.69
2017-11-30T23:44:44.349Z,83.77
2017-11-30T23:47:10.160Z,83.37
2017-11-30T23:49:37.569Z,83.20
2017-11-30T23:52:03.398Z,82.88
2017-11-30T23:54:33.083Z,82.54
2017-11-30T23:56:58.903Z,82.80
2017-11-30T23:59:28.426Z,82.82
